Terminal Aerodrome Forecast
Issued by NWS

Home | Current Version | Previous Version | Text Only | Print | Product List | Glossary On
Versions: 1 2 3 4 5 6 7 8 9 10 11 12 13 14 15 16 17 18
000
FTUS43 KABR 060908 AAA
TAFPIR
TAF AMD
KPIR 060908Z 0609/0706 13011KT P6SM OVC045
      TEMPO 0609/0612 5SM BR OVC025
     FM061400 13014G23KT 5SM -SHRA BR OVC015=

USA.gov is the U.S. government's official web portal to all federal, state and local government web resources and services.